In Rescue
 
Open Full Screen Window  High Contrast Mode
Wind Gusting 00 knots
11
April 02, 2020 10:46 PM CDT
Weather Information
Wind Direction
  160 °
Wind Speed
  11 kt (13 mph)
Wind Gust
  00 kt (0 mph)
Altimeter
29.98 in
Visibility
10 SM
Temperature
12° C
54° F
Dewpoint
05° C
41° F
Humidity
63%
1hr Rain Fall
00.00 in.
24hr Rain Fall
00.00 in.
Sky Condition
Broken @ 7,000 ft
VFR

METAR KFKA 030346Z AUTO 16011KT 10SM BKN070 12/05 A2998 RMK AO2 T01220051

FAA Disclaimer: The data displayed is for advisory purposes only and is not to be used for flight planning or operations.